createdAt,value
2019-04-11T00:00:01.607Z,16.90
2019-04-11T00:02:31.683Z,18.13
2019-04-11T00:05:02.327Z,17.70
2019-04-11T00:07:33.470Z,17.07
2019-04-11T00:10:04.665Z,17.63
2019-04-11T00:12:34.666Z,16.77
2019-04-11T00:15:04.794Z,16.20
2019-04-11T00:17:34.786Z,16.10
2019-04-11T00:20:04.772Z,16.33
2019-04-11T00:22:35.678Z,17.20
2019-04-11T00:25:05.735Z,16.27
2019-04-11T00:27:35.659Z,16.83
2019-04-11T00:30:07.991Z,16.80
2019-04-11T00:32:38.025Z,17.20
2019-04-11T00:35:09.257Z,17.80
2019-04-11T00:37:39.156Z,16.77
2019-04-11T00:40:09.371Z,17.57
2019-04-11T00:42:39.368Z,16.37
2019-04-11T00:45:09.582Z,16.10
2019-04-11T00:47:39.782Z,15.87
2019-04-11T00:50:10.616Z,17.40
2019-04-11T00:52:41.282Z,18.00
2019-04-11T00:55:11.403Z,15.57
2019-04-11T00:57:41.265Z,17.93
2019-04-11T01:00:11.290Z,15.03
2019-04-11T01:02:42.274Z,16.40
2019-04-11T01:05:13.162Z,16.23
2019-04-11T01:07:43.095Z,15.77
2019-04-11T01:10:13.948Z,16.23
2019-04-11T01:12:44.869Z,15.83
2019-04-11T01:15:17.462Z,15.97
2019-04-11T01:17:47.567Z,15.93
2019-04-11T01:20:17.497Z,15.23
2019-04-11T01:22:47.362Z,16.73
2019-04-11T01:25:17.185Z,15.83
2019-04-11T01:27:48.012Z,15.33
2019-04-11T01:30:24.906Z,16.37
2019-04-11T01:32:54.871Z,15.63
2019-04-11T01:35:25.490Z,17.20
2019-04-11T01:37:55.734Z,20.03
2019-04-11T01:40:25.716Z,17.40
2019-04-11T01:42:55.623Z,15.77
2019-04-11T01:45:27.549Z,15.37
2019-04-11T01:48:11.177Z,16.00
2019-04-11T01:50:41.258Z,14.83
2019-04-11T01:53:11.307Z,15.77
2019-04-11T01:55:41.234Z,15.97
2019-04-11T01:58:11.114Z,15.00
2019-04-11T02:01:14.875Z,15.03
2019-04-11T02:04:03.766Z,16.50
2019-04-11T02:06:36.202Z,14.97
2019-04-11T02:09:11.856Z,14.37
2019-04-11T02:11:41.810Z,14.83
2019-04-11T02:14:16.967Z,15.53
2019-04-11T02:16:47.368Z,15.47
2019-04-11T02:19:18.267Z,14.53
2019-04-11T02:21:49.680Z,14.17
2019-04-11T02:24:27.993Z,14.90
2019-04-11T02:27:06.559Z,15.60
2019-04-11T02:29:37.329Z,14.53
2019-04-11T02:32:07.613Z,15.00
2019-04-11T02:34:39.566Z,15.63
2019-04-11T02:37:09.351Z,14.90
2019-04-11T02:39:40.918Z,15.47
2019-04-11T02:42:12.295Z,15.20
2019-04-11T02:44:59.600Z,16.20
2019-04-11T02:47:20.203Z,14.90
2019-04-11T02:49:45.617Z,14.10
2019-04-11T02:52:17.578Z,15.57
2019-04-11T02:54:49.188Z,15.20
2019-04-11T02:57:21.592Z,14.13
2019-04-11T02:59:53.690Z,14.83
2019-04-11T03:02:23.851Z,14.27
2019-04-11T03:04:55.665Z,14.43
2019-04-11T03:07:26.561Z,12.63
2019-04-11T03:09:56.784Z,13.73
2019-04-11T03:12:27.515Z,14.93
2019-04-11T03:15:16.362Z,15.50
2019-04-11T03:17:36.221Z,14.10
2019-04-11T03:20:14.355Z,15.37
2019-04-11T03:22:34.428Z,14.80
2019-04-11T03:25:06.072Z,15.07
2019-04-11T03:27:37.246Z,13.73
2019-04-11T03:30:14.692Z,14.47
2019-04-11T03:38:07.607Z,13.93
2019-04-11T03:40:30.423Z,13.67
2019-04-11T03:43:04.416Z,14.43
2019-04-11T03:45:38.787Z,13.57
2019-04-11T03:48:06.124Z,14.47
2019-04-11T03:50:26.063Z,13.17
2019-04-11T03:52:56.229Z,14.30
2019-04-11T03:55:28.002Z,13.20
2019-04-11T03:57:59.154Z,13.33
2019-04-11T04:00:35.455Z,14.00
2019-04-11T04:03:02.077Z,13.70
2019-04-11T04:05:36.249Z,12.93
2019-04-11T04:08:05.985Z,14.50
2019-04-11T04:10:37.183Z,12.33
2019-04-11T04:13:13.285Z,12.93
2019-04-11T04:16:12.071Z,13.73
2019-04-11T04:18:58.620Z,13.60
2019-04-11T04:21:35.587Z,12.43
2019-04-11T04:24:25.165Z,12.83
2019-04-11T04:26:56.794Z,13.70
2019-04-11T04:29:28.819Z,13.43
2019-04-11T04:31:59.512Z,12.47
2019-04-11T04:34:29.478Z,12.70
2019-04-11T04:37:00.117Z,14.80
2019-04-11T04:39:31.370Z,14.00
2019-04-11T04:42:08.871Z,19.13
2019-04-11T04:44:33.489Z,16.23
2019-04-11T04:47:13.622Z,14.07
2019-04-11T04:49:36.406Z,13.87
2019-04-11T04:52:09.494Z,13.13
2019-04-11T04:54:38.702Z,20.93
2019-04-11T04:57:09.296Z,23.00
2019-04-11T04:59:42.319Z,39.33
2019-04-11T05:02:12.881Z,13.07
2019-04-11T05:04:43.683Z,12.60
2019-04-11T05:07:15.205Z,16.07
2019-04-11T05:09:45.995Z,16.43
2019-04-11T05:12:16.422Z,12.37
2019-04-11T05:14:47.601Z,14.50
2019-04-11T05:17:19.242Z,13.27
2019-04-11T05:19:49.263Z,13.80
2019-04-11T05:22:19.114Z,15.17
2019-04-11T05:24:49.036Z,12.40
2019-04-11T05:27:19.050Z,13.30
2019-04-11T05:29:49.456Z,12.60
2019-04-11T05:32:21.989Z,15.83
2019-04-11T05:34:51.862Z,11.93
2019-04-11T05:37:22.935Z,11.87
2019-04-11T05:39:52.812Z,16.73
2019-04-11T05:42:25.556Z,13.67
2019-04-11T05:44:54.770Z,16.03
2019-04-11T05:47:25.613Z,23.73
2019-04-11T05:50:10.022Z,15.53
2019-04-11T05:52:39.961Z,13.67
2019-04-11T05:55:12.328Z,11.93
2019-04-11T05:57:44.780Z,13.40
2019-04-11T06:00:31.193Z,12.37
2019-04-11T06:03:03.788Z,17.20
2019-04-11T06:05:58.289Z,12.10
2019-04-11T06:08:28.502Z,12.50
2019-04-11T06:11:24.319Z,12.37
2019-04-11T06:14:13.125Z,13.70
2019-04-11T06:16:49.503Z,11.40
2019-04-11T06:19:39.700Z,11.23
2019-04-11T06:22:10.778Z,13.67
2019-04-11T06:24:58.650Z,12.07
2019-04-11T06:27:40.722Z,14.63
2019-04-11T06:30:21.793Z,13.23
2019-04-11T06:33:10.118Z,12.97
2019-04-11T06:36:00.185Z,13.13
2019-04-11T06:38:51.723Z,13.60
2019-04-11T06:41:43.606Z,11.53
2019-04-11T06:44:50.380Z,11.80
2019-04-11T06:47:37.939Z,13.07
2019-04-11T06:50:37.518Z,11.63
2019-04-11T06:53:08.969Z,13.30
2019-04-11T06:56:12.992Z,13.00
2019-04-11T06:58:46.441Z,12.07
2019-04-11T07:01:20.290Z,13.67
2019-04-11T07:03:57.410Z,13.00
2019-04-11T07:06:29.965Z,11.20
2019-04-11T07:09:17.499Z,11.23
2019-04-11T07:11:50.719Z,11.50
2019-04-11T07:14:39.754Z,11.73
2019-04-11T07:17:27.529Z,11.60
2019-04-11T07:20:31.575Z,10.90
2019-04-11T07:23:20.046Z,11.03
2019-04-11T07:26:10.133Z,13.10
2019-04-11T07:28:58.583Z,11.60
2019-04-11T07:31:48.762Z,11.57
2019-04-11T07:34:53.116Z,10.50
2019-04-11T07:37:38.528Z,10.20
2019-04-11T07:40:29.475Z,10.20
2019-04-11T07:43:25.059Z,10.57
2019-04-11T07:46:24.624Z,10.30
2019-04-11T07:49:06.383Z,11.70
2019-04-11T07:51:48.845Z,10.20
2019-04-11T07:54:23.195Z,10.67
2019-04-11T07:57:15.002Z,9.13
2019-04-11T08:00:03.930Z,9.63
2019-04-11T08:03:02.053Z,7.90
2019-04-11T08:05:58.736Z,9.03
2019-04-11T08:08:36.698Z,10.37
2019-04-11T08:11:13.598Z,8.20
2019-04-11T08:14:14.449Z,10.07
2019-04-11T08:17:01.752Z,13.60
2019-04-11T08:19:59.733Z,9.77
2019-04-11T08:22:41.305Z,7.80
2019-04-11T08:25:25.748Z,9.77
2019-04-11T08:28:01.343Z,7.73
2019-04-11T08:30:37.109Z,7.83
2019-04-11T08:33:08.027Z,7.80
2019-04-11T08:35:54.002Z,7.90
2019-04-11T08:38:28.918Z,7.40
2019-04-11T08:41:07.327Z,8.17
2019-04-11T08:43:37.661Z,8.27
2019-04-11T08:46:24.666Z,8.20
2019-04-11T08:48:57.454Z,7.30
2019-04-11T08:51:27.534Z,7.50
2019-04-11T08:54:17.376Z,7.97
2019-04-11T08:56:47.478Z,6.90
2019-04-11T08:59:44.031Z,8.60
2019-04-11T09:02:18.541Z,6.27
2019-04-11T09:05:14.994Z,6.93
2019-04-11T09:08:12.703Z,6.37
2019-04-11T09:11:00.250Z,7.10
2019-04-11T09:14:03.915Z,8.07
2019-04-11T09:16:56.221Z,7.23
2019-04-11T09:19:36.917Z,7.47
2019-04-11T09:22:25.769Z,10.67
2019-04-11T09:25:21.186Z,8.47
2019-04-11T09:28:04.975Z,7.00
2019-04-11T09:30:57.978Z,9.23
2019-04-11T09:33:57.546Z,7.70
2019-04-11T09:36:53.396Z,7.30
2019-04-11T09:39:33.266Z,7.63
2019-04-11T09:42:22.714Z,8.57
2019-04-11T09:45:11.653Z,7.63
2019-04-11T09:48:14.150Z,7.90
2019-04-11T09:51:01.118Z,7.07
2019-04-11T09:53:35.003Z,8.37
2019-04-11T09:56:36.259Z,7.63
2019-04-11T09:59:12.196Z,7.90
2019-04-11T10:02:08.117Z,10.23
2019-04-11T10:04:39.258Z,7.50
2019-04-11T10:07:40.492Z,8.03
2019-04-11T10:10:46.211Z,7.13
2019-04-11T10:13:27.304Z,7.83
2019-04-11T10:16:17.880Z,7.60
2019-04-11T10:19:07.598Z,7.23
2019-04-11T10:21:39.539Z,7.20
2019-04-11T10:24:20.639Z,7.47
2019-04-11T10:26:56.328Z,7.77
2019-04-11T10:29:45.174Z,8.87
2019-04-11T10:32:15.722Z,7.50
2019-04-11T10:35:08.192Z,7.37
2019-04-11T10:37:40.199Z,8.20
2019-04-11T10:40:30.174Z,9.33
2019-04-11T10:43:01.057Z,6.90
2019-04-11T10:45:39.578Z,6.60
2019-04-11T10:48:09.641Z,6.53
2019-04-11T10:50:58.527Z,12.73
2019-04-11T10:53:28.534Z,6.80
2019-04-11T10:56:26.421Z,6.97
2019-04-11T10:58:59.435Z,7.00
2019-04-11T11:02:00.241Z,6.57
2019-04-11T11:04:36.753Z,6.27
2019-04-11T11:07:18.785Z,7.00
2019-04-11T11:10:07.634Z,6.13
2019-04-11T11:13:08.394Z,7.13
2019-04-11T11:16:09.185Z,8.90
2019-04-11T11:19:31.492Z,6.73
2019-04-11T11:21:38.941Z,6.40
2019-04-11T11:24:39.071Z,7.00
2019-04-11T11:27:07.253Z,6.40
2019-04-11T11:29:45.381Z,5.83
2019-04-11T11:32:30.053Z,6.47
2019-04-11T11:35:22.429Z,8.20
2019-04-11T11:37:57.542Z,5.77
2019-04-11T11:41:05.803Z,7.03
2019-04-11T11:43:35.994Z,7.33
2019-04-11T11:46:34.162Z,7.53
2019-04-11T11:49:08.177Z,5.83
2019-04-11T11:51:45.757Z,6.13
2019-04-11T11:54:33.769Z,8.63
2019-04-11T11:57:32.921Z,6.57
2019-04-11T12:00:14.760Z,7.13
2019-04-11T12:03:03.786Z,7.87
2019-04-11T12:05:50.285Z,8.77
2019-04-11T12:08:45.254Z,7.83
2019-04-11T12:11:14.142Z,7.07
2019-04-11T12:14:02.034Z,8.13
2019-04-11T12:16:44.283Z,8.27
2019-04-11T12:19:21.637Z,8.33
2019-04-11T12:21:53.747Z,7.93
2019-04-11T12:24:38.761Z,8.40
2019-04-11T12:27:26.810Z,8.20
2019-04-11T12:30:11.780Z,11.47
2019-04-11T12:32:49.812Z,8.90
2019-04-11T12:35:30.458Z,10.17
2019-04-11T12:38:12.520Z,8.73
2019-04-11T12:41:04.533Z,10.73
2019-04-11T12:43:48.990Z,9.50
2019-04-11T12:46:36.476Z,9.87
2019-04-11T12:49:18.695Z,8.70
2019-04-11T12:52:13.395Z,7.77
2019-04-11T12:54:44.241Z,8.03
2019-04-11T12:57:42.119Z,8.13
2019-04-11T13:00:22.843Z,7.30
2019-04-11T13:03:10.602Z,7.53
2019-04-11T13:05:41.114Z,8.53
2019-04-11T13:08:28.428Z,8.07
2019-04-11T13:10:58.409Z,7.10
2019-04-11T13:13:40.207Z,8.63
2019-04-11T13:16:12.852Z,8.07
2019-04-11T13:18:59.998Z,8.37
2019-04-11T13:21:49.008Z,8.00
2019-04-11T13:24:36.583Z,7.37
2019-04-11T13:27:17.594Z,7.90
2019-04-11T13:30:06.504Z,7.73
2019-04-11T13:32:54.300Z,7.37
2019-04-11T13:35:41.708Z,7.60
2019-04-11T13:38:17.566Z,8.03
2019-04-11T13:41:06.437Z,7.83
2019-04-11T13:43:42.320Z,8.17
2019-04-11T13:46:46.302Z,7.77
2019-04-11T13:49:33.838Z,9.67
2019-04-11T13:52:28.748Z,7.93
2019-04-11T13:55:10.082Z,7.50
2019-04-11T13:57:58.960Z,7.00
2019-04-11T14:00:42.611Z,8.37
2019-04-11T14:03:37.519Z,8.67
2019-04-11T14:06:13.861Z,7.97
2019-04-11T14:08:53.002Z,8.90
2019-04-11T14:11:24.095Z,7.87
2019-04-11T14:13:54.492Z,8.53
2019-04-11T14:16:25.541Z,7.57
2019-04-11T14:19:11.689Z,7.47
2019-04-11T14:21:43.495Z,8.37
2019-04-11T14:24:27.726Z,9.20
2019-04-11T14:26:57.709Z,8.57
2019-04-11T14:29:44.610Z,9.70
2019-04-11T14:32:31.460Z,8.33
2019-04-11T14:35:23.462Z,9.13
2019-04-11T14:38:04.621Z,9.50
2019-04-11T14:41:01.521Z,8.40
2019-04-11T14:43:30.353Z,8.77
2019-04-11T14:46:22.403Z,10.07
2019-04-11T14:48:57.723Z,7.50
2019-04-11T14:51:58.976Z,9.37
2019-04-11T14:54:40.396Z,7.83
2019-04-11T14:57:36.026Z,8.17
2019-04-11T15:00:24.129Z,7.83
2019-04-11T15:03:13.734Z,7.83
2019-04-11T15:06:01.132Z,10.80
2019-04-11T15:08:48.486Z,8.73
2019-04-11T15:11:32.082Z,7.90
2019-04-11T15:14:27.131Z,7.67
2019-04-11T15:17:10.069Z,8.30
2019-04-11T15:19:40.496Z,7.87
2019-04-11T15:22:44.504Z,8.40
2019-04-11T15:25:21.929Z,8.33
2019-04-11T15:28:12.355Z,8.10
2019-04-11T15:30:43.362Z,8.43
2019-04-11T15:33:32.606Z,7.00
2019-04-11T15:36:03.006Z,11.67
2019-04-11T15:39:00.765Z,7.60
2019-04-11T15:41:32.242Z,7.43
2019-04-11T15:44:41.823Z,8.73
2019-04-11T15:47:13.363Z,7.93
2019-04-11T15:50:08.427Z,8.50
2019-04-11T15:52:41.517Z,8.93
2019-04-11T15:55:33.264Z,8.00
2019-04-11T15:58:03.129Z,8.17
2019-04-11T16:01:04.147Z,7.60
2019-04-11T16:03:34.740Z,6.50
2019-04-11T16:06:22.310Z,8.00
2019-04-11T16:08:58.098Z,7.47
2019-04-11T16:11:52.994Z,7.20
2019-04-11T16:14:29.295Z,7.23
2019-04-11T16:17:20.967Z,7.70
2019-04-11T16:20:18.933Z,7.87
2019-04-11T16:23:07.914Z,7.03
2019-04-11T16:25:38.230Z,7.97
2019-04-11T16:28:38.245Z,9.90
2019-04-11T16:31:09.803Z,8.33
2019-04-11T16:34:08.173Z,8.07
2019-04-11T16:36:58.836Z,7.77
2019-04-11T16:39:52.131Z,8.63
2019-04-11T16:42:30.012Z,8.50
2019-04-11T16:45:24.660Z,7.57
2019-04-11T16:48:10.454Z,9.70
2019-04-11T16:50:40.367Z,8.97
2019-04-11T16:53:11.768Z,8.27
2019-04-11T16:55:43.112Z,9.30
2019-04-11T16:58:17.111Z,8.67
2019-04-11T17:00:45.130Z,8.00
2019-04-11T17:03:17.206Z,7.50
2019-04-11T17:05:55.911Z,7.83
2019-04-11T17:08:31.082Z,8.10
2019-04-11T17:11:03.408Z,8.17
2019-04-11T17:13:33.275Z,7.97
2019-04-11T17:16:03.693Z,8.03
2019-04-11T17:18:34.378Z,7.63
2019-04-11T17:21:07.735Z,7.93
2019-04-11T17:23:36.499Z,7.50
2019-04-11T17:26:06.726Z,9.80
2019-04-11T17:28:36.786Z,8.57
2019-04-11T17:31:06.736Z,7.23
2019-04-11T17:33:36.659Z,7.47
2019-04-11T17:36:06.542Z,9.93
2019-04-11T17:38:37.302Z,6.97
2019-04-11T17:41:11.087Z,7.07
2019-04-11T17:43:41.996Z,8.37
2019-04-11T17:46:10.974Z,7.43
2019-04-11T17:48:40.942Z,7.40
2019-04-11T17:51:10.796Z,7.20
2019-04-11T17:53:40.653Z,6.87
2019-04-11T17:56:10.606Z,6.33
2019-04-11T17:58:40.484Z,6.90
2019-04-11T18:01:10.410Z,6.30
2019-04-11T18:03:42.060Z,7.10
2019-04-11T18:06:11.870Z,6.50
2019-04-11T18:08:41.826Z,6.43
2019-04-11T18:11:11.825Z,6.20
2019-04-11T18:13:41.770Z,6.83
2019-04-11T18:16:11.645Z,7.23
2019-04-11T18:18:41.518Z,7.00
2019-04-11T18:21:11.483Z,7.07
2019-04-11T18:23:41.467Z,6.50
2019-04-11T18:26:11.426Z,7.70
2019-04-11T18:28:41.622Z,6.87
2019-04-11T18:31:11.503Z,8.37
2019-04-11T18:33:41.634Z,7.73
2019-04-11T18:36:11.614Z,7.00
2019-04-11T18:38:41.527Z,7.40
2019-04-11T18:41:13.682Z,7.63
2019-04-11T18:43:44.802Z,7.77
2019-04-11T18:46:14.670Z,9.37
2019-04-11T18:48:44.591Z,6.80
2019-04-11T18:51:14.661Z,7.53
2019-04-11T18:53:44.830Z,8.23
2019-04-11T18:56:14.783Z,7.43
2019-04-11T18:58:44.733Z,7.70
2019-04-11T19:01:17.757Z,8.60
2019-04-11T19:03:46.899Z,7.23
2019-04-11T19:06:27.454Z,6.77
2019-04-11T19:08:48.650Z,11.80
2019-04-11T19:11:18.602Z,7.13
2019-04-11T19:13:48.580Z,7.57
2019-04-11T19:16:18.598Z,6.93
2019-04-11T19:18:48.891Z,7.63
2019-04-11T19:21:21.111Z,7.93
2019-04-11T19:23:51.072Z,6.93
2019-04-11T19:26:22.892Z,7.67
2019-04-11T19:28:54.925Z,6.50
2019-04-11T19:31:27.127Z,6.87
2019-04-11T19:33:56.207Z,6.50
2019-04-11T19:36:26.345Z,8.37
2019-04-11T19:38:56.355Z,6.87
2019-04-11T19:41:26.285Z,6.70
2019-04-11T19:43:56.131Z,11.13
2019-04-11T19:46:26.055Z,9.20
2019-04-11T19:48:59.144Z,6.83
2019-04-11T19:51:28.973Z,9.97
2019-04-11T19:54:02.961Z,10.93
2019-04-11T19:56:53.286Z,17.43
2019-04-11T19:59:23.362Z,10.27
2019-04-11T20:01:53.820Z,8.87
2019-04-11T20:04:24.448Z,7.77
2019-04-11T20:06:54.736Z,8.57
2019-04-11T20:09:24.613Z,9.30
2019-04-11T20:11:54.653Z,7.57
2019-04-11T20:14:24.553Z,6.83
2019-04-11T20:16:54.593Z,7.67
2019-04-11T20:19:27.141Z,6.93
2019-04-11T20:21:56.141Z,7.53
2019-04-11T20:24:26.190Z,8.47
2019-04-11T20:26:56.252Z,6.97
2019-04-11T20:29:26.167Z,9.07
2019-04-11T20:31:56.148Z,10.07
2019-04-11T20:34:27.570Z,7.17
2019-04-11T20:36:58.056Z,7.17
2019-04-11T20:39:28.010Z,8.50
2019-04-11T20:41:58.054Z,6.57
2019-04-11T20:44:28.202Z,8.67
2019-04-11T20:47:00.375Z,6.27
2019-04-11T20:49:29.900Z,5.97
2019-04-11T20:52:00.703Z,6.60
2019-04-11T20:54:30.790Z,7.53
2019-04-11T20:57:00.836Z,8.70
2019-04-11T20:59:34.750Z,6.70
2019-04-11T21:02:03.373Z,6.93
2019-04-11T21:04:33.386Z,6.33
2019-04-11T21:07:03.408Z,6.57
2019-04-11T21:09:33.816Z,9.77
2019-04-11T21:12:07.115Z,7.33
2019-04-11T21:14:35.667Z,12.53
2019-04-11T21:17:05.481Z,7.07
2019-04-11T21:19:35.459Z,8.97
2019-04-11T21:22:05.272Z,7.00
2019-04-11T21:24:35.351Z,7.97
2019-04-11T21:27:05.267Z,7.53
2019-04-11T21:29:35.225Z,6.67
2019-04-11T21:32:05.123Z,8.87
2019-04-11T21:34:34.986Z,7.63
2019-04-11T21:37:04.922Z,8.53
2019-04-11T21:39:34.805Z,8.93
2019-04-11T21:42:06.113Z,8.17
2019-04-11T21:44:36.884Z,7.80
2019-04-11T21:47:07.361Z,7.73
2019-04-11T21:49:37.846Z,8.07
2019-04-11T21:52:11.973Z,7.07
2019-04-11T21:54:39.389Z,6.70
2019-04-11T21:57:09.277Z,6.87
2019-04-11T21:59:55.649Z,6.70
2019-04-11T22:02:25.718Z,7.40
2019-04-11T22:04:58.516Z,6.90
2019-04-11T22:07:30.822Z,7.80
2019-04-11T22:09:58.976Z,7.63
2019-04-11T22:12:28.934Z,6.73
2019-04-11T22:14:58.885Z,7.67
2019-04-11T22:17:28.794Z,6.57
2019-04-11T22:19:58.640Z,8.63
2019-04-11T22:22:29.470Z,7.43
2019-04-11T22:24:59.765Z,6.97
2019-04-11T22:27:30.892Z,10.37
2019-04-11T22:30:00.773Z,8.53
2019-04-11T22:32:30.667Z,7.03
2019-04-11T22:35:00.654Z,9.00
2019-04-11T22:37:30.883Z,6.93
2019-04-11T22:40:02.097Z,8.07
2019-04-11T22:42:32.372Z,10.13
2019-04-11T22:45:02.317Z,7.53
2019-04-11T22:47:32.203Z,8.70
2019-04-11T22:50:02.099Z,6.43
2019-04-11T22:52:33.942Z,6.77
2019-04-11T22:55:03.563Z,5.97
2019-04-11T22:57:33.498Z,7.00
2019-04-11T23:00:03.399Z,7.50
2019-04-11T23:03:00.021Z,6.23
2019-04-11T23:05:30.093Z,6.63
2019-04-11T23:07:59.978Z,7.27
2019-04-11T23:10:29.999Z,6.53
2019-04-11T23:12:59.939Z,7.90
2019-04-11T23:15:29.887Z,9.80
2019-04-11T23:18:00.042Z,7.30
2019-04-11T23:20:29.962Z,7.43
2019-04-11T23:22:59.961Z,6.93
2019-04-11T23:25:29.870Z,7.27
2019-04-11T23:27:59.842Z,6.47
2019-04-11T23:30:29.806Z,7.97
2019-04-11T23:32:59.839Z,6.77
2019-04-11T23:35:32.232Z,6.57
2019-04-11T23:38:02.225Z,6.77
2019-04-11T23:40:32.334Z,6.57
2019-04-11T23:43:02.378Z,6.10
2019-04-11T23:45:32.891Z,6.63
2019-04-11T23:48:02.911Z,6.67
2019-04-11T23:50:32.960Z,9.70
2019-04-11T23:53:02.945Z,7.87
2019-04-11T23:55:32.854Z,6.37
2019-04-11T23:58:02.773Z,6.20
